Zim Qingdao — A8IZ2 — position and weather

sailwx.info

Track history (hours):
 
Tides and Currents Weather Stations Pressure Air Temp Water Temp Dewpoint Dewpoint Depression Visibility Wind Speed Wind Dir Waves Ship Positions

Zim Qingdao

Last reported at 2014-Aug-31 09:33 UTC. Time now 2014-Aug-31 10:33 UTC.
Position N 35°58' W 005°22'.

Length 260.61 m; beam 32.25 m; draft 12.6 m.

Type: Cargo ship. MMSI: 636012904.

Date/timePositionNaut miles runAvg speedWind from/ knotsBaromVisibWave heightAir tempDewpointWater temp
2014-Aug-31 09:33N 35°58' W 005°22'9312.9
2014-Aug-31 02:22N 35°58' W 007°17'1012.1
2014-Aug-31 01:33N 35°58' W 007°29'1212.2
2014-Aug-31 00:33N 35°59' W 007°44'1212.3
2014-Aug-30 23:33N 36°00' W 007°59'1212.1
2014-Aug-30 22:33N 36°01' W 008°14'1211.9
2014-Aug-30 21:33N 36°02' W 008°29'1212.4
2014-Aug-30 20:33N 36°03' W 008°44'1312.6
2014-Aug-30 19:33N 36°04' W 008°60'1612.3
2014-Aug-30 18:17N 36°05' W 009°19'912.7
2014-Aug-30 17:33N 36°05' W 009°30'6512.4
2014-Aug-30 12:20N 36°10' W 010°50'1112.3
2014-Aug-30 11:27N 36°11' W 011°03'8 9.0
2014-Aug-30 10:34N 36°11' W 011°13'1 0.6
2014-Aug-30 09:33N 36°12' W 011°14'1 0.5
2014-Aug-30 08:33N 36°12' W 011°14'0 0.4
2014-Aug-30 07:19N 36°12' W 011°14'1 0.5
2014-Aug-30 06:18N 36°13' W 011°14'0 0.6
2014-Aug-30 05:33N 36°13' W 011°14'1 1.0
2014-Aug-30 04:29N 36°14' W 011°14'2 0.9
2014-Aug-30 02:20N 36°16' W 011°13'1 1.0
2014-Aug-30 01:30N 36°17' W 011°13'1 0.9
2014-Aug-30 00:34N 36°18' W 011°13'1 0.9
2014-Aug-29 23:22N 36°19' W 011°12'1 0.9
2014-Aug-29 22:33N 36°20' W 011°12'1 0.9
2014-Aug-29 21:33N 36°21' W 011°12'9 0.7
2014-Aug-29 08:00N 36°30' W 011°12'11 1.3 010 / 31019.010.8 24.021.8
2014-Aug-28 23:20N 36°41' W 011°13'1 1.0
2014-Aug-28 22:33N 36°42' W 011°14'10 0.8
2014-Aug-28 10:00N 36°48' W 011°24'5 1.8 320 / 21018.010.8 27.222.0
2014-Aug-28 07:26N 36°53' W 011°24'26912.0
2014-Aug-27 09:00N 38°12' W 016°48'31613.2 260 / 51018.010.8 23.822.0
2014-Aug-26 09:00N 39°42' W 023°18'   250 / 51018.010.8 23.822.1
2014-Aug-23 10:00N 42°12' W 042°42'59012.8 270 / 21010.0 5.4 20.218.5
2014-Aug-21 12:00N 41°42' W 055°54'   270 / 41016.010.8 22.818.6
Track history (hours):
 
Tides and Currents Weather Stations Pressure Air Temp Water Temp Dewpoint Dewpoint Depression Visibility Wind Speed Wind Dir Waves Ship Positions

Zim Qingdao

Last reported at 2014-Aug-31 09:33 UTC. Time now 2014-Aug-31 10:33 UTC.
Position N 35°58' W 005°22'.

Length 260.61 m; beam 32.25 m; draft 12.6 m.

Type: Cargo ship. MMSI: 636012904.

Date/timePositionNaut miles runAvg speedWind from/ knotsBaromVisibWave heightAir tempDewpointWater temp
2014-Aug-31 09:33N 35°58' W 005°22'9312.9
2014-Aug-31 02:22N 35°58' W 007°17'1012.1
2014-Aug-31 01:33N 35°58' W 007°29'1212.2
2014-Aug-31 00:33N 35°59' W 007°44'1212.3
2014-Aug-30 23:33N 36°00' W 007°59'1212.1
2014-Aug-30 22:33N 36°01' W 008°14'1211.9
2014-Aug-30 21:33N 36°02' W 008°29'1212.4
2014-Aug-30 20:33N 36°03' W 008°44'1312.6
2014-Aug-30 19:33N 36°04' W 008°60'1612.3
2014-Aug-30 18:17N 36°05' W 009°19'912.7
2014-Aug-30 17:33N 36°05' W 009°30'6512.4
2014-Aug-30 12:20N 36°10' W 010°50'1112.3
2014-Aug-30 11:27N 36°11' W 011°03'8 9.0
2014-Aug-30 10:34N 36°11' W 011°13'1 0.6
2014-Aug-30 09:33N 36°12' W 011°14'1 0.5
2014-Aug-30 08:33N 36°12' W 011°14'0 0.4
2014-Aug-30 07:19N 36°12' W 011°14'1 0.5
2014-Aug-30 06:18N 36°13' W 011°14'0 0.6
2014-Aug-30 05:33N 36°13' W 011°14'1 1.0
2014-Aug-30 04:29N 36°14' W 011°14'2 0.9
2014-Aug-30 02:20N 36°16' W 011°13'1 1.0
2014-Aug-30 01:30N 36°17' W 011°13'1 0.9
2014-Aug-30 00:34N 36°18' W 011°13'1 0.9
2014-Aug-29 23:22N 36°19' W 011°12'1 0.9
2014-Aug-29 22:33N 36°20' W 011°12'1 0.9
2014-Aug-29 21:33N 36°21' W 011°12'9 0.7
2014-Aug-29 08:00N 36°30' W 011°12'11 1.3 010 / 31019.010.8 24.021.8
2014-Aug-28 23:20N 36°41' W 011°13'1 1.0
2014-Aug-28 22:33N 36°42' W 011°14'10 0.8
2014-Aug-28 10:00N 36°48' W 011°24'5 1.8 320 / 21018.010.8 27.222.0
2014-Aug-28 07:26N 36°53' W 011°24'26912.0
2014-Aug-27 09:00N 38°12' W 016°48'31613.2 260 / 51018.010.8 23.822.0
2014-Aug-26 09:00N 39°42' W 023°18'   250 / 51018.010.8 23.822.1
2014-Aug-23 10:00N 42°12' W 042°42'59012.8 270 / 21010.0 5.4 20.218.5
2014-Aug-21 12:00N 41°42' W 055°54'   270 / 41016.010.8 22.818.6

Dump ship's entire track history